sensor_id;sensor_type;location;lat;lon;timestamp;temperature;humidity
80230;DHT22;69540;42.136;24.742;2023-09-30T00:02:11;27.50;30.80
80230;DHT22;69540;42.136;24.742;2023-09-30T00:04:38;27.50;30.80
80230;DHT22;69540;42.136;24.742;2023-09-30T00:07:03;27.50;30.80
80230;DHT22;69540;42.136;24.742;2023-09-30T00:09:30;27.50;30.80
80230;DHT22;69540;42.136;24.742;2023-09-30T00:11:56;27.50;30.80
80230;DHT22;69540;42.136;24.742;2023-09-30T00:14:22;27.50;30.80
80230;DHT22;69540;42.136;24.742;2023-09-30T00:16:47;27.50;30.80
80230;DHT22;69540;42.136;24.742;2023-09-30T00:19:13;27.50;30.90
80230;DHT22;69540;42.136;24.742;2023-09-30T00:21:39;27.50;30.90
80230;DHT22;69540;42.136;24.742;2023-09-30T00:24:05;27.50;30.90
80230;DHT22;69540;42.136;24.742;2023-09-30T00:26:31;27.50;30.80
80230;DHT22;69540;42.136;24.742;2023-09-30T00:28:57;27.50;30.90
80230;DHT22;69540;42.136;24.742;2023-09-30T00:31:22;27.50;30.90
80230;DHT22;69540;42.136;24.742;2023-09-30T00:33:48;27.50;30.90
80230;DHT22;69540;42.136;24.742;2023-09-30T00:36:14;27.50;30.90
80230;DHT22;69540;42.136;24.742;2023-09-30T00:38:39;27.50;31.50
80230;DHT22;69540;42.136;24.742;2023-09-30T00:41:06;27.50;30.90
80230;DHT22;69540;42.136;24.742;2023-09-30T00:43:33;27.50;30.90
80230;DHT22;69540;42.136;24.742;2023-09-30T00:48:55;27.50;30.80
80230;DHT22;69540;42.136;24.742;2023-09-30T00:51:21;27.50;30.90
80230;DHT22;69540;42.136;24.742;2023-09-30T00:53:48;27.50;30.90
80230;DHT22;69540;42.136;24.742;2023-09-30T00:56:14;27.50;30.90
80230;DHT22;69540;42.136;24.742;2023-09-30T00:58:40;27.50;30.90
80230;DHT22;69540;42.136;24.742;2023-09-30T01:01:06;27.50;30.90
80230;DHT22;69540;42.136;24.742;2023-09-30T01:03:33;27.50;30.90
80230;DHT22;69540;42.136;24.742;2023-09-30T01:05:59;27.50;31.00
80230;DHT22;69540;42.136;24.742;2023-09-30T01:08:26;27.50;31.00
80230;DHT22;69540;42.136;24.742;2023-09-30T01:10:53;27.50;32.10
80230;DHT22;69540;42.136;24.742;2023-09-30T01:13:19;27.50;31.00
80230;DHT22;69540;42.136;24.742;2023-09-30T01:15:44;27.50;31.00
80230;DHT22;69540;42.136;24.742;2023-09-30T01:18:10;27.50;31.00
80230;DHT22;69540;42.136;24.742;2023-09-30T01:20:36;27.50;31.00
80230;DHT22;69540;42.136;24.742;2023-09-30T01:23:02;27.50;31.00
80230;DHT22;69540;42.136;24.742;2023-09-30T01:25:29;27.50;31.00
80230;DHT22;69540;42.136;24.742;2023-09-30T01:27:55;27.50;31.00
80230;DHT22;69540;42.136;24.742;2023-09-30T01:30:20;27.50;31.00
80230;DHT22;69540;42.136;24.742;2023-09-30T01:32:48;27.50;31.00
80230;DHT22;69540;42.136;24.742;2023-09-30T01:35:14;27.50;31.00
80230;DHT22;69540;42.136;24.742;2023-09-30T01:37:40;27.50;31.00
80230;DHT22;69540;42.136;24.742;2023-09-30T01:40:06;27.50;31.00
80230;DHT22;69540;42.136;24.742;2023-09-30T01:42:33;27.50;31.00
80230;DHT22;69540;42.136;24.742;2023-09-30T01:44:59;27.50;31.00
80230;DHT22;69540;42.136;24.742;2023-09-30T01:47:25;27.50;31.00
80230;DHT22;69540;42.136;24.742;2023-09-30T01:49:50;27.50;31.00
80230;DHT22;69540;42.136;24.742;2023-09-30T01:52:16;27.50;31.00
80230;DHT22;69540;42.136;24.742;2023-09-30T01:54:41;27.50;31.00
80230;DHT22;69540;42.136;24.742;2023-09-30T01:57:07;27.50;31.00
80230;DHT22;69540;42.136;24.742;2023-09-30T01:59:33;27.50;31.00
80230;DHT22;69540;42.136;24.742;2023-09-30T02:01:58;27.50;31.00
80230;DHT22;69540;42.136;24.742;2023-09-30T02:04:24;27.50;31.00
80230;DHT22;69540;42.136;24.742;2023-09-30T02:06:50;27.50;31.00
80230;DHT22;69540;42.136;24.742;2023-09-30T02:09:15;27.50;31.10
80230;DHT22;69540;42.136;24.742;2023-09-30T02:11:41;27.50;31.00
80230;DHT22;69540;42.136;24.742;2023-09-30T02:14:07;27.50;31.00
80230;DHT22;69540;42.136;24.742;2023-09-30T02:16:33;27.50;31.00
80230;DHT22;69540;42.136;24.742;2023-09-30T02:18:58;27.50;31.10
80230;DHT22;69540;42.136;24.742;2023-09-30T02:21:24;27.50;31.00
80230;DHT22;69540;42.136;24.742;2023-09-30T02:23:50;27.60;31.10
80230;DHT22;69540;42.136;24.742;2023-09-30T02:26:20;27.50;31.00
80230;DHT22;69540;42.136;24.742;2023-09-30T02:28:47;27.50;31.00
80230;DHT22;69540;42.136;24.742;2023-09-30T02:31:13;27.50;31.10
80230;DHT22;69540;42.136;24.742;2023-09-30T02:33:38;27.50;31.00
80230;DHT22;69540;42.136;24.742;2023-09-30T02:36:08;27.50;31.00
80230;DHT22;69540;42.136;24.742;2023-09-30T02:38:34;27.50;31.00
80230;DHT22;69540;42.136;24.742;2023-09-30T02:41:03;27.50;31.00
80230;DHT22;69540;42.136;24.742;2023-09-30T02:43:28;27.50;32.10
80230;DHT22;69540;42.136;24.742;2023-09-30T02:45:54;27.50;31.00
80230;DHT22;69540;42.136;24.742;2023-09-30T02:48:20;27.50;31.10
80230;DHT22;69540;42.136;24.742;2023-09-30T02:50:45;27.50;31.00
80230;DHT22;69540;42.136;24.742;2023-09-30T02:53:12;27.50;31.00
80230;DHT22;69540;42.136;24.742;2023-09-30T02:55:39;27.50;31.00
80230;DHT22;69540;42.136;24.742;2023-09-30T02:58:04;27.50;31.00
80230;DHT22;69540;42.136;24.742;2023-09-30T03:00:30;27.50;31.10
80230;DHT22;69540;42.136;24.742;2023-09-30T03:03:01;27.50;31.00
80230;DHT22;69540;42.136;24.742;2023-09-30T03:05:30;27.50;31.10
80230;DHT22;69540;42.136;24.742;2023-09-30T03:07:59;27.50;31.00
80230;DHT22;69540;42.136;24.742;2023-09-30T03:10:26;27.50;31.00
80230;DHT22;69540;42.136;24.742;2023-09-30T03:12:58;27.50;31.10
80230;DHT22;69540;42.136;24.742;2023-09-30T03:15:27;27.50;31.00
80230;DHT22;69540;42.136;24.742;2023-09-30T03:17:56;27.50;31.10
80230;DHT22;69540;42.136;24.742;2023-09-30T03:20:22;27.50;31.00
80230;DHT22;69540;42.136;24.742;2023-09-30T03:22:50;27.50;31.00
80230;DHT22;69540;42.136;24.742;2023-09-30T03:25:18;27.50;31.00
80230;DHT22;69540;42.136;24.742;2023-09-30T03:27:45;27.50;31.00
80230;DHT22;69540;42.136;24.742;2023-09-30T03:30:14;27.50;31.00
80230;DHT22;69540;42.136;24.742;2023-09-30T03:32:41;27.50;31.00
80230;DHT22;69540;42.136;24.742;2023-09-30T03:35:08;27.50;31.00
80230;DHT22;69540;42.136;24.742;2023-09-30T03:37:37;27.50;31.00
80230;DHT22;69540;42.136;24.742;2023-09-30T03:40:03;27.50;31.00
80230;DHT22;69540;42.136;24.742;2023-09-30T03:42:38;27.50;31.00
80230;DHT22;69540;42.136;24.742;2023-09-30T03:45:05;27.50;31.00
80230;DHT22;69540;42.136;24.742;2023-09-30T03:47:35;27.50;31.00
80230;DHT22;69540;42.136;24.742;2023-09-30T03:50:01;27.50;31.00
80230;DHT22;69540;42.136;24.742;2023-09-30T03:52:29;27.50;31.00
80230;DHT22;69540;42.136;24.742;2023-09-30T03:54:54;27.50;31.00
80230;DHT22;69540;42.136;24.742;2023-09-30T03:57:20;27.50;31.00
80230;DHT22;69540;42.136;24.742;2023-09-30T03:59:46;27.50;31.00
80230;DHT22;69540;42.136;24.742;2023-09-30T04:02:12;27.50;31.00
80230;DHT22;69540;42.136;24.742;2023-09-30T04:04:38;27.50;31.00
80230;DHT22;69540;42.136;24.742;2023-09-30T04:07:03;27.50;30.90
80230;DHT22;69540;42.136;24.742;2023-09-30T04:09:32;27.50;30.90
80230;DHT22;69540;42.136;24.742;2023-09-30T04:11:58;27.50;31.00
80230;DHT22;69540;42.136;24.742;2023-09-30T04:14:24;27.50;31.00
80230;DHT22;69540;42.136;24.742;2023-09-30T04:16:50;27.50;31.00
80230;DHT22;69540;42.136;24.742;2023-09-30T04:19:16;27.50;31.00
80230;DHT22;69540;42.136;24.742;2023-09-30T04:21:42;27.50;31.00
80230;DHT22;69540;42.136;24.742;2023-09-30T04:24:08;27.50;30.90
80230;DHT22;69540;42.136;24.742;2023-09-30T04:26:34;27.50;31.00
80230;DHT22;69540;42.136;24.742;2023-09-30T04:29:00;27.50;31.00
80230;DHT22;69540;42.136;24.742;2023-09-30T04:31:28;27.50;31.00
80230;DHT22;69540;42.136;24.742;2023-09-30T04:33:54;27.50;31.00
80230;DHT22;69540;42.136;24.742;2023-09-30T04:36:20;27.50;31.00
80230;DHT22;69540;42.136;24.742;2023-09-30T04:38:46;27.50;31.00
80230;DHT22;69540;42.136;24.742;2023-09-30T04:41:12;27.50;31.00
80230;DHT22;69540;42.136;24.742;2023-09-30T04:43:38;27.50;31.00
80230;DHT22;69540;42.136;24.742;2023-09-30T04:46:05;27.50;31.00
80230;DHT22;69540;42.136;24.742;2023-09-30T04:48:32;27.50;31.00
80230;DHT22;69540;42.136;24.742;2023-09-30T04:50:58;27.50;31.00
80230;DHT22;69540;42.136;24.742;2023-09-30T04:53:23;27.50;31.00
80230;DHT22;69540;42.136;24.742;2023-09-30T04:55:49;27.50;31.00
80230;DHT22;69540;42.136;24.742;2023-09-30T04:58:16;27.50;31.00
80230;DHT22;69540;42.136;24.742;2023-09-30T05:00:41;27.50;31.00
80230;DHT22;69540;42.136;24.742;2023-09-30T05:03:08;27.50;30.90
80230;DHT22;69540;42.136;24.742;2023-09-30T05:05:33;27.50;31.10
80230;DHT22;69540;42.136;24.742;2023-09-30T05:08:00;27.50;30.90
80230;DHT22;69540;42.136;24.742;2023-09-30T05:10:27;27.50;30.90
80230;DHT22;69540;42.136;24.742;2023-09-30T05:12:52;27.50;30.90
80230;DHT22;69540;42.136;24.742;2023-09-30T05:15:20;27.50;31.00
80230;DHT22;69540;42.136;24.742;2023-09-30T05:17:47;27.50;30.90
80230;DHT22;69540;42.136;24.742;2023-09-30T05:20:13;27.50;30.90
80230;DHT22;69540;42.136;24.742;2023-09-30T05:22:40;27.50;30.90
80230;DHT22;69540;42.136;24.742;2023-09-30T05:25:12;27.50;31.10
80230;DHT22;69540;42.136;24.742;2023-09-30T05:27:39;27.50;30.90
80230;DHT22;69540;42.136;24.742;2023-09-30T05:30:06;27.50;31.00
80230;DHT22;69540;42.136;24.742;2023-09-30T05:32:32;27.50;31.00
80230;DHT22;69540;42.136;24.742;2023-09-30T05:34:58;27.50;30.80
80230;DHT22;69540;42.136;24.742;2023-09-30T05:37:25;27.50;30.90
80230;DHT22;69540;42.136;24.742;2023-09-30T05:39:51;27.50;30.80
80230;DHT22;69540;42.136;24.742;2023-09-30T05:42:17;27.50;30.80
80230;DHT22;69540;42.136;24.742;2023-09-30T05:44:44;27.50;30.90
80230;DHT22;69540;42.136;24.742;2023-09-30T05:47:10;27.50;30.80
80230;DHT22;69540;42.136;24.742;2023-09-30T05:49:35;27.50;30.80
80230;DHT22;69540;42.136;24.742;2023-09-30T05:52:02;27.50;30.80
80230;DHT22;69540;42.136;24.742;2023-09-30T05:54:28;27.50;30.80
80230;DHT22;69540;42.136;24.742;2023-09-30T05:56:54;27.50;30.80
80230;DHT22;69540;42.136;24.742;2023-09-30T05:59:20;27.50;30.80
80230;DHT22;69540;42.136;24.742;2023-09-30T06:01:46;27.50;31.90
80230;DHT22;69540;42.136;24.742;2023-09-30T06:04:12;27.50;30.80
80230;DHT22;69540;42.136;24.742;2023-09-30T06:06:37;27.50;30.80
80230;DHT22;69540;42.136;24.742;2023-09-30T06:09:04;27.50;30.90
80230;DHT22;69540;42.136;24.742;2023-09-30T06:11:33;27.50;30.90
80230;DHT22;69540;42.136;24.742;2023-09-30T06:13:59;27.50;30.90
80230;DHT22;69540;42.136;24.742;2023-09-30T06:16:26;27.50;30.80
80230;DHT22;69540;42.136;24.742;2023-09-30T06:18:55;27.50;30.80
80230;DHT22;69540;42.136;24.742;2023-09-30T06:21:21;27.50;30.80
80230;DHT22;69540;42.136;24.742;2023-09-30T06:23:48;27.50;30.80
80230;DHT22;69540;42.136;24.742;2023-09-30T06:26:14;27.50;30.80
80230;DHT22;69540;42.136;24.742;2023-09-30T06:28:42;27.50;30.80
80230;DHT22;69540;42.136;24.742;2023-09-30T06:31:08;27.50;30.80
80230;DHT22;69540;42.136;24.742;2023-09-30T06:33:38;27.50;30.80
80230;DHT22;69540;42.136;24.742;2023-09-30T06:36:13;27.50;30.80
80230;DHT22;69540;42.136;24.742;2023-09-30T06:38:40;27.50;30.80
80230;DHT22;69540;42.136;24.742;2023-09-30T06:41:08;27.50;30.80
80230;DHT22;69540;42.136;24.742;2023-09-30T06:43:34;27.50;30.80
80230;DHT22;69540;42.136;24.742;2023-09-30T06:46:08;27.50;30.80
80230;DHT22;69540;42.136;24.742;2023-09-30T06:48:39;27.50;30.80
80230;DHT22;69540;42.136;24.742;2023-09-30T06:51:09;27.50;30.80
80230;DHT22;69540;42.136;24.742;2023-09-30T06:53:38;27.50;30.80
80230;DHT22;69540;42.136;24.742;2023-09-30T06:56:07;27.50;30.80
80230;DHT22;69540;42.136;24.742;2023-09-30T06:58:32;27.50;30.80
80230;DHT22;69540;42.136;24.742;2023-09-30T07:00:58;27.50;30.80
80230;DHT22;69540;42.136;24.742;2023-09-30T07:03:24;27.50;30.80
80230;DHT22;69540;42.136;24.742;2023-09-30T07:05:50;27.50;30.80
80230;DHT22;69540;42.136;24.742;2023-09-30T07:08:18;27.50;30.80
80230;DHT22;69540;42.136;24.742;2023-09-30T07:10:46;27.50;30.80
80230;DHT22;69540;42.136;24.742;2023-09-30T07:13:16;27.50;30.80
80230;DHT22;69540;42.136;24.742;2023-09-30T07:15:41;27.50;30.80
80230;DHT22;69540;42.136;24.742;2023-09-30T07:18:08;27.50;30.80
80230;DHT22;69540;42.136;24.742;2023-09-30T07:20:34;27.50;30.80
80230;DHT22;69540;42.136;24.742;2023-09-30T07:23:00;27.50;30.80
80230;DHT22;69540;42.136;24.742;2023-09-30T07:25:29;27.50;30.80
80230;DHT22;69540;42.136;24.742;2023-09-30T07:27:57;27.50;30.80
80230;DHT22;69540;42.136;24.742;2023-09-30T07:30:24;27.50;30.70
80230;DHT22;69540;42.136;24.742;2023-09-30T07:32:50;27.50;30.80
80230;DHT22;69540;42.136;24.742;2023-09-30T07:35:15;27.50;30.80
80230;DHT22;69540;42.136;24.742;2023-09-30T07:37:42;27.50;30.80
80230;DHT22;69540;42.136;24.742;2023-09-30T07:40:08;27.50;30.80
80230;DHT22;69540;42.136;24.742;2023-09-30T07:42:35;27.50;30.80
80230;DHT22;69540;42.136;24.742;2023-09-30T07:45:02;27.50;30.80
80230;DHT22;69540;42.136;24.742;2023-09-30T07:47:29;27.50;30.80
80230;DHT22;69540;42.136;24.742;2023-09-30T07:49:56;27.50;30.80
80230;DHT22;69540;42.136;24.742;2023-09-30T07:52:22;27.50;30.80
80230;DHT22;69540;42.136;24.742;2023-09-30T07:54:47;27.50;30.80
80230;DHT22;69540;42.136;24.742;2023-09-30T07:57:13;27.50;30.80
80230;DHT22;69540;42.136;24.742;2023-09-30T07:59:39;27.50;30.80
80230;DHT22;69540;42.136;24.742;2023-09-30T08:02:04;27.50;30.80
80230;DHT22;69540;42.136;24.742;2023-09-30T08:04:32;27.50;30.90
80230;DHT22;69540;42.136;24.742;2023-09-30T08:06:57;27.50;30.80
80230;DHT22;69540;42.136;24.742;2023-09-30T08:09:23;27.50;30.90
80230;DHT22;69540;42.136;24.742;2023-09-30T08:11:50;27.50;31.00
80230;DHT22;69540;42.136;24.742;2023-09-30T08:14:16;27.50;31.00
80230;DHT22;69540;42.136;24.742;2023-09-30T08:16:42;27.50;31.00
80230;DHT22;69540;42.136;24.742;2023-09-30T08:19:09;27.50;30.90
80230;DHT22;69540;42.136;24.742;2023-09-30T08:21:35;27.50;30.90
80230;DHT22;69540;42.136;24.742;2023-09-30T08:24:02;27.50;30.80
80230;DHT22;69540;42.136;24.742;2023-09-30T08:26:28;27.50;30.80
80230;DHT22;69540;42.136;24.742;2023-09-30T08:28:53;27.50;30.80
80230;DHT22;69540;42.136;24.742;2023-09-30T08:31:19;27.50;30.80
80230;DHT22;69540;42.136;24.742;2023-09-30T08:33:45;27.50;30.80
80230;DHT22;69540;42.136;24.742;2023-09-30T08:36:11;27.50;30.80
80230;DHT22;69540;42.136;24.742;2023-09-30T08:38:38;27.50;30.80
80230;DHT22;69540;42.136;24.742;2023-09-30T08:41:04;27.50;30.90
80230;DHT22;69540;42.136;24.742;2023-09-30T08:43:30;27.50;30.80
80230;DHT22;69540;42.136;24.742;2023-09-30T08:46:00;27.50;30.80
80230;DHT22;69540;42.136;24.742;2023-09-30T08:48:27;27.60;30.90
80230;DHT22;69540;42.136;24.742;2023-09-30T08:50:54;27.50;30.80
80230;DHT22;69540;42.136;24.742;2023-09-30T08:53:20;27.50;30.80
80230;DHT22;69540;42.136;24.742;2023-09-30T08:55:47;27.50;30.80
80230;DHT22;69540;42.136;24.742;2023-09-30T08:58:13;27.60;30.90
80230;DHT22;69540;42.136;24.742;2023-09-30T09:00:39;27.60;30.90
80230;DHT22;69540;42.136;24.742;2023-09-30T09:03:07;27.60;30.90
80230;DHT22;69540;42.136;24.742;2023-09-30T09:05:33;27.50;30.80
80230;DHT22;69540;42.136;24.742;2023-09-30T09:07:58;27.50;30.80
80230;DHT22;69540;42.136;24.742;2023-09-30T09:10:24;27.50;30.80
80230;DHT22;69540;42.136;24.742;2023-09-30T09:12:57;27.50;30.90
80230;DHT22;69540;42.136;24.742;2023-09-30T09:15:27;27.60;30.80
80230;DHT22;69540;42.136;24.742;2023-09-30T09:17:56;27.60;30.90
80230;DHT22;69540;42.136;24.742;2023-09-30T09:20:24;27.60;30.90
80230;DHT22;69540;42.136;24.742;2023-09-30T09:22:54;27.50;30.80
80230;DHT22;69540;42.136;24.742;2023-09-30T09:25:22;27.50;30.80
80230;DHT22;69540;42.136;24.742;2023-09-30T09:27:51;27.50;30.80
80230;DHT22;69540;42.136;24.742;2023-09-30T09:30:22;27.60;30.80
80230;DHT22;69540;42.136;24.742;2023-09-30T09:33:04;27.60;30.90
80230;DHT22;69540;42.136;24.742;2023-09-30T09:35:32;27.60;30.90
80230;DHT22;69540;42.136;24.742;2023-09-30T09:38:06;27.60;30.80
80230;DHT22;69540;42.136;24.742;2023-09-30T09:40:34;27.60;30.80
80230;DHT22;69540;42.136;24.742;2023-09-30T09:43:01;27.50;30.80
80230;DHT22;69540;42.136;24.742;2023-09-30T09:45:33;27.60;30.80
80230;DHT22;69540;42.136;24.742;2023-09-30T09:47:59;27.60;30.90
80230;DHT22;69540;42.136;24.742;2023-09-30T09:50:25;27.60;30.80
80230;DHT22;69540;42.136;24.742;2023-09-30T09:52:54;27.60;30.80
80230;DHT22;69540;42.136;24.742;2023-09-30T09:55:26;27.60;30.80
80230;DHT22;69540;42.136;24.742;2023-09-30T09:57:53;27.60;30.80
80230;DHT22;69540;42.136;24.742;2023-09-30T10:00:24;27.60;30.80
80230;DHT22;69540;42.136;24.742;2023-09-30T10:02:50;27.60;30.80
80230;DHT22;69540;42.136;24.742;2023-09-30T10:05:18;27.60;30.80
80230;DHT22;69540;42.136;24.742;2023-09-30T10:07:57;27.60;30.80
80230;DHT22;69540;42.136;24.742;2023-09-30T10:10:26;27.60;30.80
80230;DHT22;69540;42.136;24.742;2023-09-30T10:12:51;27.60;30.80
80230;DHT22;69540;42.136;24.742;2023-09-30T10:18:09;27.60;30.80
80230;DHT22;69540;42.136;24.742;2023-09-30T10:20:40;27.60;30.70
80230;DHT22;69540;42.136;24.742;2023-09-30T10:23:29;27.60;30.90
80230;DHT22;69540;42.136;24.742;2023-09-30T10:28:43;27.60;30.80
80230;DHT22;69540;42.136;24.742;2023-09-30T10:39:00;27.60;30.80
80230;DHT22;69540;42.136;24.742;2023-09-30T10:46:51;27.60;30.80
80230;DHT22;69540;42.136;24.742;2023-09-30T10:49:37;27.60;30.80
80230;DHT22;69540;42.136;24.742;2023-09-30T10:52:04;27.60;30.70
80230;DHT22;69540;42.136;24.742;2023-09-30T10:54:32;27.60;30.80
80230;DHT22;69540;42.136;24.742;2023-09-30T10:56:58;27.60;30.80
80230;DHT22;69540;42.136;24.742;2023-09-30T10:59:31;27.60;30.90
80230;DHT22;69540;42.136;24.742;2023-09-30T11:01:57;27.60;30.70
80230;DHT22;69540;42.136;24.742;2023-09-30T11:04:23;27.60;30.80
80230;DHT22;69540;42.136;24.742;2023-09-30T11:06:49;27.60;30.80
80230;DHT22;69540;42.136;24.742;2023-09-30T11:09:20;27.60;30.80
80230;DHT22;69540;42.136;24.742;2023-09-30T11:11:49;27.60;30.80
80230;DHT22;69540;42.136;24.742;2023-09-30T11:16:43;27.50;31.00
80230;DHT22;69540;42.136;24.742;2023-09-30T11:19:10;27.50;31.30
80230;DHT22;69540;42.136;24.742;2023-09-30T11:21:37;27.50;31.50
80230;DHT22;69540;42.136;24.742;2023-09-30T11:24:03;27.40;31.60
80230;DHT22;69540;42.136;24.742;2023-09-30T11:26:30;27.40;31.70
80230;DHT22;69540;42.136;24.742;2023-09-30T11:29:09;27.40;31.70
80230;DHT22;69540;42.136;24.742;2023-09-30T11:31:43;27.40;31.90
80230;DHT22;69540;42.136;24.742;2023-09-30T11:34:10;27.40;32.00
80230;DHT22;69540;42.136;24.742;2023-09-30T11:36:41;27.40;32.10
80230;DHT22;69540;42.136;24.742;2023-09-30T11:39:28;27.40;32.10
80230;DHT22;69540;42.136;24.742;2023-09-30T11:41:54;27.40;32.20
80230;DHT22;69540;42.136;24.742;2023-09-30T11:44:25;27.40;32.30
80230;DHT22;69540;42.136;24.742;2023-09-30T11:46:59;27.40;32.00
80230;DHT22;69540;42.136;24.742;2023-09-30T11:52:04;27.40;32.10
80230;DHT22;69540;42.136;24.742;2023-09-30T11:54:35;27.40;32.20
80230;DHT22;69540;42.136;24.742;2023-09-30T11:57:05;27.40;32.10
80230;DHT22;69540;42.136;24.742;2023-09-30T11:59:31;27.40;31.90
80230;DHT22;69540;42.136;24.742;2023-09-30T12:01:57;27.40;32.00
80230;DHT22;69540;42.136;24.742;2023-09-30T12:04:24;27.40;32.00
80230;DHT22;69540;42.136;24.742;2023-09-30T12:06:50;27.40;32.10
80230;DHT22;69540;42.136;24.742;2023-09-30T12:09:16;27.40;32.00
80230;DHT22;69540;42.136;24.742;2023-09-30T12:11:48;27.40;32.10
80230;DHT22;69540;42.136;24.742;2023-09-30T12:14:14;27.30;32.10
80230;DHT22;69540;42.136;24.742;2023-09-30T12:16:39;27.30;32.30
80230;DHT22;69540;42.136;24.742;2023-09-30T12:19:06;27.30;32.30
80230;DHT22;69540;42.136;24.742;2023-09-30T12:21:32;27.30;32.30
80230;DHT22;69540;42.136;24.742;2023-09-30T12:24:00;27.30;32.40
80230;DHT22;69540;42.136;24.742;2023-09-30T12:26:25;27.20;32.50
80230;DHT22;69540;42.136;24.742;2023-09-30T12:28:51;27.20;32.50
80230;DHT22;69540;42.136;24.742;2023-09-30T12:31:17;27.20;32.50
80230;DHT22;69540;42.136;24.742;2023-09-30T12:33:43;27.20;32.50
80230;DHT22;69540;42.136;24.742;2023-09-30T12:36:09;27.20;32.30
80230;DHT22;69540;42.136;24.742;2023-09-30T12:38:35;27.30;32.10
80230;DHT22;69540;42.136;24.742;2023-09-30T12:41:00;27.40;32.00
80230;DHT22;69540;42.136;24.742;2023-09-30T12:43:26;27.40;31.80
80230;DHT22;69540;42.136;24.742;2023-09-30T12:45:52;27.50;31.70
80230;DHT22;69540;42.136;24.742;2023-09-30T12:48:17;27.50;31.50
80230;DHT22;69540;42.136;24.742;2023-09-30T12:50:46;27.50;31.50
80230;DHT22;69540;42.136;24.742;2023-09-30T12:53:11;27.60;31.40
80230;DHT22;69540;42.136;24.742;2023-09-30T12:55:37;27.60;31.40
80230;DHT22;69540;42.136;24.742;2023-09-30T12:58:04;27.60;31.40
80230;DHT22;69540;42.136;24.742;2023-09-30T13:00:31;27.60;31.30
80230;DHT22;69540;42.136;24.742;2023-09-30T13:02:59;27.60;31.30
80230;DHT22;69540;42.136;24.742;2023-09-30T13:05:25;27.70;31.30
80230;DHT22;69540;42.136;24.742;2023-09-30T13:07:50;27.70;31.30
80230;DHT22;69540;42.136;24.742;2023-09-30T13:10:18;27.70;31.20
80230;DHT22;69540;42.136;24.742;2023-09-30T13:12:45;27.70;31.20
80230;DHT22;69540;42.136;24.742;2023-09-30T13:15:11;27.70;31.20
80230;DHT22;69540;42.136;24.742;2023-09-30T13:17:36;27.70;31.10
80230;DHT22;69540;42.136;24.742;2023-09-30T13:20:02;27.80;32.20
80230;DHT22;69540;42.136;24.742;2023-09-30T13:22:30;27.80;31.20
80230;DHT22;69540;42.136;24.742;2023-09-30T13:24:57;27.80;31.10
80230;DHT22;69540;42.136;24.742;2023-09-30T13:27:25;27.80;32.20
80230;DHT22;69540;42.136;24.742;2023-09-30T13:29:51;27.80;31.10
80230;DHT22;69540;42.136;24.742;2023-09-30T13:32:20;27.80;31.20
80230;DHT22;69540;42.136;24.742;2023-09-30T13:34:45;27.90;31.10
80230;DHT22;69540;42.136;24.742;2023-09-30T13:37:11;27.80;31.00
80230;DHT22;69540;42.136;24.742;2023-09-30T13:39:39;27.80;31.00
80230;DHT22;69540;42.136;24.742;2023-09-30T13:42:05;27.90;31.00
80230;DHT22;69540;42.136;24.742;2023-09-30T13:44:32;27.90;31.00
80230;DHT22;69540;42.136;24.742;2023-09-30T13:46:58;27.90;32.10
80230;DHT22;69540;42.136;24.742;2023-09-30T13:49:24;27.90;31.00
80230;DHT22;69540;42.136;24.742;2023-09-30T13:51:50;27.90;30.90
80230;DHT22;69540;42.136;24.742;2023-09-30T13:54:15;28.00;31.00
80230;DHT22;69540;42.136;24.742;2023-09-30T13:56:41;27.90;30.90
80230;DHT22;69540;42.136;24.742;2023-09-30T13:59:07;28.00;30.90
80230;DHT22;69540;42.136;24.742;2023-09-30T14:01:33;28.00;30.90
80230;DHT22;69540;42.136;24.742;2023-09-30T14:03:58;28.00;30.90
80230;DHT22;69540;42.136;24.742;2023-09-30T14:06:25;28.00;31.00
80230;DHT22;69540;42.136;24.742;2023-09-30T14:08:51;28.00;30.90
80230;DHT22;69540;42.136;24.742;2023-09-30T14:11:18;28.00;30.90
80230;DHT22;69540;42.136;24.742;2023-09-30T14:13:44;28.00;31.00
80230;DHT22;69540;42.136;24.742;2023-09-30T14:16:10;28.00;30.90
80230;DHT22;69540;42.136;24.742;2023-09-30T14:18:36;28.00;30.90
80230;DHT22;69540;42.136;24.742;2023-09-30T14:21:04;28.00;31.00
80230;DHT22;69540;42.136;24.742;2023-09-30T14:23:30;28.00;30.90
80230;DHT22;69540;42.136;24.742;2023-09-30T14:25:56;28.00;30.90
80230;DHT22;69540;42.136;24.742;2023-09-30T14:28:23;28.00;31.00
80230;DHT22;69540;42.136;24.742;2023-09-30T14:30:48;28.00;30.90
80230;DHT22;69540;42.136;24.742;2023-09-30T14:33:16;28.00;30.90
80230;DHT22;69540;42.136;24.742;2023-09-30T14:35:42;28.00;30.90
80230;DHT22;69540;42.136;24.742;2023-09-30T14:38:09;28.00;30.90
80230;DHT22;69540;42.136;24.742;2023-09-30T14:40:37;28.00;30.90
80230;DHT22;69540;42.136;24.742;2023-09-30T14:43:07;28.00;30.90
80230;DHT22;69540;42.136;24.742;2023-09-30T14:45:37;28.00;31.00
80230;DHT22;69540;42.136;24.742;2023-09-30T14:48:06;28.00;31.00
80230;DHT22;69540;42.136;24.742;2023-09-30T14:50:31;28.00;31.00
80230;DHT22;69540;42.136;24.742;2023-09-30T14:52:58;28.00;31.00
80230;DHT22;69540;42.136;24.742;2023-09-30T14:55:23;28.00;31.10
80230;DHT22;69540;42.136;24.742;2023-09-30T14:57:49;28.00;31.10
80230;DHT22;69540;42.136;24.742;2023-09-30T15:00:15;28.00;31.10
80230;DHT22;69540;42.136;24.742;2023-09-30T15:02:42;28.00;31.10
80230;DHT22;69540;42.136;24.742;2023-09-30T15:05:08;28.00;31.20
80230;DHT22;69540;42.136;24.742;2023-09-30T15:07:34;28.00;31.20
80230;DHT22;69540;42.136;24.742;2023-09-30T15:10:03;28.00;31.20
80230;DHT22;69540;42.136;24.742;2023-09-30T15:12:29;28.00;31.30
80230;DHT22;69540;42.136;24.742;2023-09-30T15:14:55;27.90;31.20
80230;DHT22;69540;42.136;24.742;2023-09-30T15:17:21;27.90;31.20
80230;DHT22;69540;42.136;24.742;2023-09-30T15:19:47;27.90;31.20
80230;DHT22;69540;42.136;24.742;2023-09-30T15:22:12;27.90;31.20
80230;DHT22;69540;42.136;24.742;2023-09-30T15:24:38;27.90;31.20
80230;DHT22;69540;42.136;24.742;2023-09-30T15:27:03;27.90;31.20
80230;DHT22;69540;42.136;24.742;2023-09-30T15:29:29;27.90;31.20
80230;DHT22;69540;42.136;24.742;2023-09-30T15:31:55;27.90;31.30
80230;DHT22;69540;42.136;24.742;2023-09-30T15:34:20;27.90;31.30
80230;DHT22;69540;42.136;24.742;2023-09-30T15:36:47;27.90;31.30
80230;DHT22;69540;42.136;24.742;2023-09-30T15:39:13;27.90;31.40
80230;DHT22;69540;42.136;24.742;2023-09-30T15:41:39;27.90;31.30